Time;durP1;ratioP1;P1;durP2;ratioP2;P2;SDS_P1;SDS_P2;PMS_P1;PMS_P2;Temp;Humidity;BMP_temperature;BMP_pressure;BME280_temperature;BME280_humidity;BME280_pressure;Samples;Min_cycle;Max_cycle;Signal;HPM_P1;HPM_P2
2022/08/24 00:02:22;;;;;;;2.58;2.03;;;22.70;85.80;;;;;;6241985;23;20441;-81
2022/08/24 00:04:49;;;;;;;3.72;2.22;;;22.80;85.90;;;;;;6244548;22;20022;-80
2022/08/24 00:07:14;;;;;;;3.30;2.40;;;22.80;85.90;;;;;;6242657;23;20035;-79
2022/08/24 00:09:41;;;;;;;4.15;2.53;;;22.70;85.90;;;;;;6243543;23;20536;-81
2022/08/24 00:12:07;;;;;;;3.60;2.10;;;22.70;86.00;;;;;;6242848;22;20103;-80
2022/08/24 00:14:33;;;;;;;2.70;1.98;;;22.80;86.00;;;;;;6244131;22;20004;-81
2022/08/24 00:16:59;;;;;;;2.40;1.85;;;22.80;85.90;;;;;;6242294;22;20035;-80
2022/08/24 00:19:25;;;;;;;2.78;2.10;;;22.70;85.90;;;;;;6242380;22;20003;-80
2022/08/24 00:21:51;;;;;;;2.97;2.00;;;22.80;85.90;;;;;;6242014;23;20008;-82
2022/08/24 00:24:17;;;;;;;2.83;2.05;;;22.80;85.90;;;;;;6243741;22;20026;-80
2022/08/24 00:26:44;;;;;;;2.40;1.90;;;22.80;85.70;;;;;;6241953;23;20012;-81
2022/08/24 00:29:11;;;;;;;2.67;1.90;;;22.80;85.70;;;;;;6241132;23;20000;-81
2022/08/24 00:31:37;;;;;;;3.58;2.35;;;22.80;85.60;;;;;;6240987;22;20075;-80
2022/08/24 00:34:03;;;;;;;3.22;2.20;;;22.80;85.70;;;;;;6242266;22;20039;-80
2022/08/24 00:36:28;;;;;;;3.85;2.30;;;22.80;85.80;;;;;;6242088;23;20062;-80
2022/08/24 00:38:54;;;;;;;3.25;2.45;;;22.80;85.90;;;;;;6240819;23;20034;-80
2022/08/24 00:41:21;;;;;;;3.25;2.13;;;22.80;85.90;;;;;;6240419;23;20487;-79
2022/08/24 00:43:58;;;;;;;3.35;2.00;;;22.80;86.00;;;;;;6242316;22;20004;-80
2022/08/24 00:46:36;;;;;;;2.65;2.03;;;22.70;86.00;;;;;;6240261;23;20012;-80
2022/08/24 00:49:06;;;;;;;4.35;2.40;;;22.70;86.00;;;;;;6240176;23;20078;-80
2022/08/24 00:51:39;;;;;;;3.67;2.40;;;22.80;86.60;;;;;;6238545;23;20046;-80
2022/08/24 00:54:12;;;;;;;2.97;2.20;;;22.80;86.10;;;;;;6240297;23;20459;-80
2022/08/24 00:56:50;;;;;;;3.35;2.20;;;22.70;86.10;;;;;;6240456;23;20004;-80
2022/08/24 00:59:29;;;;;;;3.47;2.20;;;22.70;86.10;;;;;;6241731;22;19993;-80
2022/08/24 01:01:57;;;;;;;3.25;2.22;;;22.70;86.00;;;;;;6238605;23;20004;-80
2022/08/24 01:04:31;;;;;;;3.65;2.20;;;22.70;86.00;;;;;;6239481;23;20012;-80
2022/08/24 01:06:57;;;;;;;2.33;1.77;;;22.70;86.00;;;;;;6245754;22;20015;-80
2022/08/24 01:09:23;;;;;;;2.45;1.90;;;22.80;86.00;;;;;;6243968;23;20051;-80
2022/08/24 01:11:49;;;;;;;3.25;2.30;;;22.80;85.80;;;;;;6241524;23;20023;-80
2022/08/24 01:14:17;;;;;;;3.08;2.20;;;22.80;85.80;;;;;;6244543;22;20000;-81
2022/08/24 01:19:37;;;;;;;2.65;2.05;;;22.80;85.70;;;;;;6244822;23;20065;-81
2022/08/24 01:22:37;;;;;;;3.50;2.00;;;22.80;85.80;;;;;;6241379;23;20721;-80
2022/08/24 01:25:04;;;;;;;3.13;2.28;;;22.70;85.90;;;;;;6241963;23;20449;-81
2022/08/24 01:27:30;;;;;;;2.95;2.08;;;22.80;86.00;;;;;;6243657;22;20007;-79
2022/08/24 01:29:58;;;;;;;3.13;2.22;;;22.70;86.00;;;;;;6243768;23;20012;-81
2022/08/24 01:32:26;;;;;;;4.07;2.30;;;22.70;86.10;;;;;;6239708;23;20008;-80
2022/08/24 01:34:52;;;;;;;3.03;2.10;;;22.70;86.10;;;;;;6242399;22;20000;-79
2022/08/24 01:37:18;;;;;;;2.95;2.10;;;22.70;86.20;;;;;;6240966;23;20535;-80
2022/08/24 01:39:46;;;;;;;3.35;2.00;;;22.70;86.20;;;;;;6241720;23;20007;-80
2022/08/24 01:42:13;;;;;;;3.35;1.95;;;22.70;86.20;;;;;;6242028;22;20004;-79
2022/08/24 01:44:41;;;;;;;2.78;1.90;;;22.70;86.20;;;;;;6239771;23;20035;-81
2022/08/24 01:47:09;;;;;;;4.25;2.35;;;22.70;86.10;;;;;;6247186;22;20433;-81
2022/08/24 01:49:38;;;;;;;3.25;2.35;;;22.70;86.10;;;;;;6246315;22;20024;-81
2022/08/24 01:52:05;;;;;;;2.70;1.98;;;22.70;86.10;;;;;;6245621;22;20409;-81
2022/08/24 01:54:32;;;;;;;2.83;2.03;;;22.80;86.10;;;;;;6244653;23;20027;-80
2022/08/24 01:56:59;;;;;;;2.88;1.95;;;22.70;85.90;;;;;;6245046;22;20058;-81
2022/08/24 01:59:24;;;;;;;3.28;2.20;;;22.80;85.90;;;;;;6244885;22;20388;-81
2022/08/24 02:01:55;;;;;;;3.15;2.10;;;22.80;85.90;;;;;;6244468;22;20090;-81
2022/08/24 02:04:21;;;;;;;2.63;2.03;;;22.70;85.90;;;;;;6244825;22;20012;-80
2022/08/24 02:06:47;;;;;;;3.17;2.15;;;22.70;85.90;;;;;;6243259;23;20011;-80
2022/08/24 02:09:12;;;;;;;2.63;2.10;;;22.70;86.00;;;;;;6244237;23;20023;-80
2022/08/24 02:11:39;;;;;;;4.45;2.38;;;22.70;86.00;;;;;;6243040;23;20077;-80
2022/08/24 02:14:05;;;;;;;2.58;2.00;;;22.70;86.10;;;;;;6241932;23;20011;-81
2022/08/24 02:16:31;;;;;;;2.65;2.15;;;22.70;86.10;;;;;;6243701;22;20030;-82
2022/08/24 02:18:57;;;;;;;2.92;2.28;;;22.70;86.20;;;;;;6241463;23;20042;-81
2022/08/24 02:21:23;;;;;;;3.25;2.10;;;22.70;86.20;;;;;;6242648;22;20008;-80
2022/08/24 02:23:49;;;;;;;3.25;2.20;;;22.70;86.30;;;;;;6241407;23;20007;-82
2022/08/24 02:26:14;;;;;;;2.85;2.15;;;22.70;86.30;;;;;;6241578;23;20008;-80
2022/08/24 02:28:40;;;;;;;3.75;1.98;;;22.70;86.30;;;;;;6240489;23;20062;-80
2022/08/24 02:31:07;;;;;;;3.28;2.10;;;22.70;86.30;;;;;;6242172;22;20011;-80
2022/08/24 02:33:34;;;;;;;2.70;2.00;;;22.70;86.20;;;;;;6239978;23;20353;-80
2022/08/24 02:36:00;;;;;;;2.47;1.90;;;22.70;86.20;;;;;;6242835;22;20449;-80
2022/08/24 02:38:26;;;;;;;3.25;2.03;;;22.70;86.20;;;;;;6241057;23;20599;-81
2022/08/24 02:40:52;;;;;;;3.47;1.88;;;22.70;86.20;;;;;;6242429;23;20050;-80
2022/08/24 02:43:17;;;;;;;3.03;2.03;;;22.70;86.10;;;;;;6239955;23;20031;-80
2022/08/24 02:45:44;;;;;;;2.70;1.88;;;22.70;86.00;;;;;;6240557;23;20008;-81
2022/08/24 02:48:11;;;;;;;3.17;1.88;;;22.70;86.00;;;;;;6237163;22;20004;-79
2022/08/24 02:50:39;;;;;;;3.15;2.10;;;22.70;86.00;;;;;;6242153;22;20019;-80
2022/08/24 02:53:04;;;;;;;2.40;1.92;;;22.70;86.10;;;;;;6240841;22;20000;-78
2022/08/24 02:55:30;;;;;;;3.00;2.08;;;22.70;86.20;;;;;;6241117;23;20006;-81
2022/08/24 02:57:55;;;;;;;3.15;1.80;;;22.70;86.20;;;;;;6242436;23;20026;-79
2022/08/24 03:00:21;;;;;;;3.20;2.10;;;22.60;86.20;;;;;;6243639;23;20200;-81
2022/08/24 03:02:47;;;;;;;3.35;2.10;;;22.70;86.30;;;;;;6243163;22;20330;-80
2022/08/24 03:05:14;;;;;;;2.83;2.00;;;22.70;86.40;;;;;;6241854;23;20016;-82
2022/08/24 03:07:39;;;;;;;2.63;1.98;;;22.70;86.40;;;;;;6242455;23;20026;-77
2022/08/24 03:10:06;;;;;;;3.03;1.95;;;22.70;86.40;;;;;;6240711;23;20397;-81
2022/08/24 03:12:33;;;;;;;2.58;1.80;;;22.70;86.40;;;;;;6242437;22;20004;-79
2022/08/24 03:15:00;;;;;;;2.70;1.90;;;22.70;86.40;;;;;;6243395;22;20083;-81
2022/08/24 03:17:29;;;;;;;3.03;2.00;;;22.60;86.40;;;;;;6237294;22;20554;-78
2022/08/24 03:19:55;;;;;;;2.60;1.90;;;22.70;86.40;;;;;;6209684;23;20501;-78
2022/08/24 03:22:20;;;;;;;2.38;1.98;;;22.60;86.30;;;;;;6207931;23;20005;-79
2022/08/24 03:24:46;;;;;;;2.33;1.90;;;22.70;86.30;;;;;;6208639;23;20016;-77
2022/08/24 03:27:12;;;;;;;2.50;1.80;;;22.70;86.20;;;;;;6216003;23;20008;-79
2022/08/24 03:29:38;;;;;;;2.78;1.95;;;22.70;86.20;;;;;;6240145;22;20005;-79
2022/08/24 03:32:04;;;;;;;3.47;2.00;;;22.70;86.10;;;;;;6237789;23;20441;-78
2022/08/24 03:34:29;;;;;;;3.00;2.10;;;22.70;86.10;;;;;;6238723;23;20004;-79
2022/08/24 03:36:55;;;;;;;3.03;2.10;;;22.70;86.20;;;;;;6239859;22;20087;-78
2022/08/24 03:39:20;;;;;;;2.80;2.00;;;22.70;86.30;;;;;;6238888;23;20004;-77
2022/08/24 03:41:46;;;;;;;2.85;2.15;;;22.70;86.90;;;;;;6237624;23;20004;-78
2022/08/24 03:44:11;;;;;;;3.50;2.17;;;22.70;86.40;;;;;;6238573;23;20018;-79
2022/08/24 03:46:38;;;;;;;2.53;2.05;;;22.60;86.40;;;;;;6238239;23;20479;-78
2022/08/24 03:49:07;;;;;;;2.75;2.00;;;22.60;86.40;;;;;;6238633;22;20008;-78
2022/08/24 03:51:34;;;;;;;2.78;1.83;;;22.60;86.50;;;;;;6237488;23;20031;-78
2022/08/24 03:54:00;;;;;;;2.70;1.90;;;22.60;86.50;;;;;;6237420;23;20016;-78
2022/08/24 03:56:26;;;;;;;2.47;1.80;;;22.70;86.50;;;;;;6238081;23;20395;-79
2022/08/24 03:58:52;;;;;;;2.00;1.80;;;22.60;86.50;;;;;;6237047;22;20024;-78
2022/08/24 04:01:18;;;;;;;2.30;1.90;;;22.60;86.50;;;;;;6248768;22;20004;-81
2022/08/24 04:03:45;;;;;;;3.05;2.00;;;22.60;86.50;;;;;;6252507;23;20026;-80
2022/08/24 04:06:12;;;;;;;2.85;1.70;;;22.60;86.50;;;;;;6251862;23;20008;-81
2022/08/24 04:08:40;;;;;;;3.35;2.03;;;22.60;86.40;;;;;;6251431;22;20012;-79
2022/08/24 04:11:20;;;;;;;2.90;2.15;;;22.60;86.30;;;;;;6252614;22;20092;-80
2022/08/24 04:13:46;;;;;;;2.60;2.00;;;22.70;86.30;;;;;;6249215;23;20004;-80
2022/08/24 04:16:14;;;;;;;2.70;1.88;;;22.70;86.20;;;;;;6248933;23;20011;-79
2022/08/24 04:18:40;;;;;;;3.17;2.00;;;22.70;86.20;;;;;;6273253;22;20707;-80
2022/08/24 04:21:13;;;;;;;2.40;1.90;;;22.70;86.20;;;;;;6252175;22;20033;-81
2022/08/24 04:23:39;;;;;;;2.75;2.00;;;22.70;86.30;;;;;;6251337;22;20055;-80
2022/08/24 04:26:04;;;;;;;3.60;2.35;;;22.60;86.30;;;;;;6252144;22;20007;-81
2022/08/24 04:28:30;;;;;;;2.67;1.90;;;22.70;86.40;;;;;;6251275;22;20601;-80
2022/08/24 04:30:56;;;;;;;2.90;2.20;;;22.70;86.50;;;;;;6249196;22;20007;-79
2022/08/24 04:33:21;;;;;;;3.55;2.13;;;22.60;86.50;;;;;;6244334;22;20073;-79
2022/08/24 04:35:48;;;;;;;3.55;2.30;;;22.60;86.50;;;;;;6248792;22;20014;-79
2022/08/24 04:38:16;;;;;;;2.95;2.13;;;22.60;86.50;;;;;;6278373;22;20000;-80
2022/08/24 04:40:43;;;;;;;3.35;1.85;;;22.60;86.50;;;;;;6250281;22;20049;-80
2022/08/24 04:43:09;;;;;;;3.00;2.05;;;22.60;86.60;;;;;;6249640;22;20030;-80
2022/08/24 04:45:40;;;;;;;2.47;1.90;;;22.60;86.50;;;;;;6250113;22;20015;-80
2022/08/24 04:48:05;;;;;;;2.88;2.00;;;22.60;86.50;;;;;;6247419;22;20007;-80
2022/08/24 04:50:39;;;;;;;2.80;1.90;;;22.60;86.50;;;;;;6250079;22;20007;-80
2022/08/24 04:53:06;;;;;;;2.15;1.70;;;22.60;86.40;;;;;;6276924;22;20067;-79
2022/08/24 04:55:33;;;;;;;3.05;2.08;;;22.60;86.40;;;;;;6248690;22;20015;-81
2022/08/24 04:57:58;;;;;;;2.80;2.00;;;22.60;86.30;;;;;;6247899;22;20000;-80
2022/08/24 05:00:25;;;;;;;3.05;2.00;;;22.70;86.30;;;;;;6246175;22;20010;-80
2022/08/24 05:02:50;;;;;;;2.35;1.90;;;22.70;86.20;;;;;;6247265;22;20072;-80
2022/08/24 05:05:15;;;;;;;2.80;2.00;;;22.70;86.10;;;;;;6249568;22;20039;-80
2022/08/24 05:07:41;;;;;;;3.25;2.00;;;22.70;86.10;;;;;;6251136;22;20014;-79
2022/08/24 05:10:09;;;;;;;2.72;2.03;;;22.70;86.20;;;;;;6249587;22;20034;-79
2022/08/24 05:12:36;;;;;;;3.20;2.10;;;22.70;86.30;;;;;;6248399;22;20107;-81
2022/08/24 05:15:02;;;;;;;3.00;2.00;;;22.70;86.30;;;;;;6251426;22;20000;-83
2022/08/24 05:17:27;;;;;;;2.10;1.73;;;22.70;86.30;;;;;;6247923;22;20034;-78
2022/08/24 05:19:53;;;;;;;3.83;1.88;;;22.70;86.30;;;;;;6250470;22;19999;-79
2022/08/24 05:22:19;;;;;;;3.08;2.08;;;22.70;86.30;;;;;;6277783;22;20777;-79
2022/08/24 05:24:44;;;;;;;2.70;1.92;;;22.60;86.30;;;;;;6249746;22;20463;-80
2022/08/24 05:27:10;;;;;;;4.13;2.20;;;22.70;86.40;;;;;;6248654;22;20000;-80
2022/08/24 05:29:36;;;;;;;2.58;1.83;;;22.60;86.30;;;;;;6251106;22;20516;-79
2022/08/24 05:32:02;;;;;;;2.42;1.92;;;22.60;86.30;;;;;;6250366;22;20007;-81
2022/08/24 05:34:27;;;;;;;2.95;2.00;;;22.60;86.40;;;;;;6251414;22;20046;-79
2022/08/24 05:36:53;;;;;;;2.83;2.05;;;22.60;86.30;;;;;;6278315;22;20055;-79
2022/08/24 05:39:19;;;;;;;2.95;1.95;;;22.60;86.30;;;;;;6246173;22;20011;-79
2022/08/24 05:41:45;;;;;;;2.50;1.80;;;22.70;86.30;;;;;;6248272;22;20613;-79
2022/08/24 05:44:13;;;;;;;2.40;1.80;;;22.70;86.20;;;;;;6276629;22;20038;-80
2022/08/24 05:46:39;;;;;;;2.83;1.83;;;22.70;86.10;;;;;;6250175;22;20069;-79
2022/08/24 05:49:05;;;;;;;2.60;1.98;;;22.70;85.90;;;;;;6249988;22;20027;-79
2022/08/24 05:51:31;;;;;;;2.70;1.80;;;22.80;85.80;;;;;;6245239;22;20010;-79
2022/08/24 05:53:58;;;;;;;2.50;1.80;;;22.70;85.70;;;;;;6278032;22;20005;-81
2022/08/24 05:56:23;;;;;;;2.25;1.73;;;22.80;85.70;;;;;;6246507;22;20007;-78
2022/08/24 05:58:49;;;;;;;8.90;2.10;;;22.80;85.70;;;;;;6241483;22;20009;-78
2022/08/24 06:01:18;;;;;;;3.47;2.00;;;22.70;85.70;;;;;;6268980;22;20573;-79
2022/08/24 06:03:44;;;;;;;2.97;1.90;;;22.80;85.70;;;;;;6243811;22;20008;-78
2022/08/24 06:06:10;;;;;;;2.72;1.98;;;22.80;85.50;;;;;;6244215;22;20501;-78
2022/08/24 06:08:40;;;;;;;3.42;1.70;;;22.80;85.40;;;;;;6271663;22;20425;-77
2022/08/24 06:11:06;;;;;;;3.33;2.00;;;22.80;85.30;;;;;;6244273;22;20006;-80
2022/08/24 06:13:32;;;;;;;3.45;1.90;;;22.80;85.20;;;;;;6242863;22;20004;-77
2022/08/24 06:16:16;;;;;;;2.45;1.90;;;22.80;85.20;;;;;;6245800;22;20545;-79
2022/08/24 06:18:41;;;;;;;2.60;1.80;;;22.80;85.10;;;;;;6275980;22;20326;-80
2022/08/24 06:21:14;;;;;;;2.85;1.83;;;22.80;85.10;;;;;;6275396;22;20014;-82
2022/08/24 06:23:42;;;;;;;3.05;1.90;;;22.80;85.10;;;;;;6247652;22;20003;-82
2022/08/24 06:28:53;;;;;;;2.97;2.10;;;22.90;85.00;;;;;;6280940;22;20018;-81
2022/08/24 06:31:19;;;;;;;2.40;1.80;;;22.90;84.70;;;;;;6249795;22;20023;-78
2022/08/24 06:33:45;;;;;;;2.50;1.80;;;23.00;84.60;;;;;;6250919;22;20102;-79
2022/08/24 06:36:10;;;;;;;2.90;1.90;;;23.00;84.40;;;;;;6250178;22;20010;-78
2022/08/24 06:38:36;;;;;;;2.70;1.80;;;23.10;84.30;;;;;;6277631;22;20030;-78
2022/08/24 06:41:02;;;;;;;2.95;1.80;;;23.10;84.20;;;;;;6247948;22;20361;-78
2022/08/24 06:43:28;;;;;;;3.55;1.90;;;23.10;84.30;;;;;;6246429;22;20004;-79
2022/08/24 06:45:55;;;;;;;3.33;1.67;;;23.10;84.40;;;;;;6249457;22;20008;-78
2022/08/24 06:48:22;;;;;;;2.83;1.70;;;23.10;84.30;;;;;;6248728;22;20444;-78
2022/08/24 06:50:48;;;;;;;2.22;1.73;;;23.00;84.10;;;;;;6275279;22;20004;-77
2022/08/24 06:53:14;;;;;;;3.85;1.80;;;23.00;84.10;;;;;;6275540;22;19999;-79
2022/08/24 06:55:50;;;;;;;2.58;1.80;;;23.10;84.30;;;;;;6248271;22;20003;-78
2022/08/24 06:58:17;;;;;;;2.92;1.90;;;23.10;84.00;;;;;;6247252;22;20058;-78
2022/08/24 07:00:43;;;;;;;3.33;2.10;;;23.10;83.80;;;;;;6274630;22;20008;-79
2022/08/24 07:03:09;;;;;;;2.60;1.90;;;23.10;83.90;;;;;;6245043;22;20582;-79
2022/08/24 07:05:34;;;;;;;3.53;2.00;;;23.10;83.90;;;;;;6273939;22;20008;-78
2022/08/24 07:08:00;;;;;;;2.78;1.80;;;23.20;83.70;;;;;;6273929;22;20718;-79
2022/08/24 07:10:27;;;;;;;2.17;1.73;;;23.20;84.00;;;;;;6273445;22;20012;-78
2022/08/24 07:12:52;;;;;;;2.90;1.85;;;23.20;83.70;;;;;;6245267;22;20026;-79
2022/08/24 07:15:18;;;;;;;3.08;1.88;;;23.20;83.50;;;;;;6273336;22;20429;-78
2022/08/24 07:17:44;;;;;;;2.70;1.77;;;23.30;83.30;;;;;;6245222;22;20509;-79
2022/08/24 07:20:11;;;;;;;4.68;2.17;;;23.40;83.10;;;;;;6245247;22;20444;-78
2022/08/24 07:22:37;;;;;;;2.72;1.80;;;23.40;82.90;;;;;;6243779;22;20014;-79
2022/08/24 07:25:04;;;;;;;3.05;1.90;;;23.40;82.70;;;;;;6273180;22;20007;-78
2022/08/24 07:27:29;;;;;;;2.95;1.90;;;23.40;82.70;;;;;;6271801;22;20050;-78
2022/08/24 07:29:55;;;;;;;2.53;1.70;;;23.40;82.70;;;;;;6245047;22;20020;-80
2022/08/24 07:32:21;;;;;;;3.17;1.88;;;23.40;82.60;;;;;;6243322;22;20060;-78
2022/08/24 07:34:46;;;;;;;3.60;1.65;;;23.40;82.60;;;;;;6244259;22;20138;-78
2022/08/24 07:37:12;;;;;;;2.38;1.80;;;23.40;82.60;;;;;;6269683;22;20489;-79
2022/08/24 07:39:37;;;;;;;2.30;1.83;;;23.40;82.60;;;;;;6274734;22;20026;-80
2022/08/24 07:42:03;;;;;;;3.25;2.00;;;23.50;82.50;;;;;;6246791;22;20034;-79
2022/08/24 07:44:30;;;;;;;2.45;1.80;;;23.50;82.50;;;;;;6247926;22;20008;-79
2022/08/24 07:46:56;;;;;;;2.65;1.90;;;23.50;82.40;;;;;;6248126;22;20039;-79
2022/08/24 07:49:21;;;;;;;3.38;1.98;;;23.50;82.30;;;;;;6247598;22;20008;-79
2022/08/24 07:51:47;;;;;;;3.17;2.15;;;23.60;82.40;;;;;;6246129;22;20395;-83
2022/08/24 07:54:14;;;;;;;3.38;2.20;;;23.60;82.20;;;;;;6248146;22;20638;-79
2022/08/24 07:56:40;;;;;;;3.33;2.03;;;23.60;82.40;;;;;;6248992;22;20000;-80
2022/08/24 07:59:06;;;;;;;3.13;2.17;;;23.60;82.40;;;;;;6248944;22;20012;-78
2022/08/24 08:01:32;;;;;;;3.05;2.20;;;23.70;82.20;;;;;;6249167;22;20042;-78
2022/08/24 08:03:58;;;;;;;2.92;2.30;;;23.70;82.00;;;;;;6249883;22;20176;-79
2022/08/24 08:06:24;;;;;;;4.15;2.47;;;23.80;81.80;;;;;;6250533;22;20003;-78
2022/08/24 08:08:49;;;;;;;3.85;2.60;;;23.80;81.60;;;;;;6250402;22;20007;-79
2022/08/24 08:11:15;;;;;;;3.80;2.47;;;23.80;81.50;;;;;;6249536;22;20075;-78
2022/08/24 08:13:41;;;;;;;3.20;2.50;;;23.80;81.40;;;;;;6250741;22;20067;-78
2022/08/24 10:06:32;;;;;;;4.10;2.60;;;24.10;81.10;;;;;;5111627;27;20299;-81
2022/08/24 10:09:33;;;;;;;4.88;3.40;;;24.10;81.50;;;;;;5109006;28;20097;-80
2022/08/24 10:12:15;;;;;;;4.72;3.10;;;24.10;81.40;;;;;;5108987;28;20020;-80
2022/08/24 10:15:07;;;;;;;4.60;3.00;;;24.10;81.30;;;;;;5109152;28;20030;-80
2022/08/24 10:18:00;;;;;;;5.47;3.22;;;24.10;81.30;;;;;;5108810;28;20023;-81
2022/08/24 10:20:46;;;;;;;4.32;2.75;;;24.10;81.30;;;;;;5108949;28;20118;-80
2022/08/24 10:23:48;;;;;;;5.50;2.92;;;24.10;81.40;;;;;;5108587;28;20038;-80
2022/08/24 10:26:55;;;;;;;4.63;3.00;;;24.10;81.50;;;;;;5110047;28;20063;-80
2022/08/24 10:29:43;;;;;;;5.22;2.72;;;24.00;81.50;;;;;;5108107;28;20028;-81
2022/08/24 10:32:21;;;;;;;4.72;2.85;;;24.00;81.70;;;;;;5108549;28;20020;-81
2022/08/24 10:35:11;;;;;;;6.35;2.90;;;24.00;81.80;;;;;;5108580;28;20425;-82
2022/08/24 10:39:39;;;;;;;4.82;2.97;;;23.90;81.90;;;;;;5108404;28;20114;-82
2022/08/24 10:41:32;;;;;;;4.93;2.67;;;23.80;82.10;;;;;;5111666;28;20039;-82
2022/08/24 10:44:23;;;;;;;5.20;2.60;;;23.90;82.40;;;;;;5109266;28;20054;-80
2022/08/24 10:46:51;;;;;;;3.83;2.78;;;23.80;82.50;;;;;;5109582;28;20027;-82
2022/08/24 10:49:35;;;;;;;3.72;2.53;;;23.80;82.60;;;;;;5108404;28;20031;-81
2022/08/24 10:52:32;;;;;;;4.30;2.53;;;23.80;82.60;;;;;;5109504;28;20020;-79
2022/08/24 10:55:11;;;;;;;3.70;2.50;;;23.80;82.50;;;;;;5108208;28;20024;-81
2022/08/24 10:57:41;;;;;;;3.53;2.55;;;23.90;82.40;;;;;;5108351;28;20063;-80
2022/08/24 11:00:14;;;;;;;4.22;2.35;;;23.90;82.40;;;;;;5108135;28;20068;-81
2022/08/24 11:02:42;;;;;;;4.43;2.42;;;23.90;82.20;;;;;;5107874;28;20024;-80
2022/08/24 11:05:15;;;;;;;4.13;2.40;;;24.00;82.00;;;;;;5107729;28;20024;-80
2022/08/24 11:08:03;;;;;;;5.03;2.53;;;24.00;81.70;;;;;;5108018;28;20024;-81
2022/08/24 11:10:34;;;;;;;3.92;2.40;;;24.10;81.60;;;;;;5108046;28;20481;-80
2022/08/24 11:13:21;;;;;;;3.17;2.35;;;24.10;81.40;;;;;;5107671;28;20024;-80
2022/08/24 11:15:53;;;;;;;3.75;2.50;;;24.10;81.20;;;;;;5104586;28;20031;-80
2022/08/24 11:18:19;;;;;;;3.50;2.53;;;24.10;81.10;;;;;;5094166;28;20051;-79
2022/08/24 11:20:47;;;;;;;3.85;2.45;;;24.10;81.20;;;;;;5094370;28;20028;-80
2022/08/24 11:23:25;;;;;;;4.88;2.40;;;24.10;81.40;;;;;;5093958;28;20497;-81
2022/08/24 11:25:55;;;;;;;3.70;2.42;;;24.10;81.40;;;;;;5094007;28;20032;-80
2022/08/24 11:28:32;;;;;;;4.05;2.50;;;24.10;81.40;;;;;;5095028;28;20110;-82
2022/08/24 11:30:58;;;;;;;5.18;2.60;;;24.10;81.50;;;;;;5093790;28;20035;-80
2022/08/24 11:33:46;;;;;;;4.25;2.47;;;24.10;81.50;;;;;;5093736;28;20024;-80
2022/08/24 11:36:22;;;;;;;4.53;2.50;;;24.10;81.50;;;;;;5093896;28;20478;-80
2022/08/24 11:39:08;;;;;;;4.15;2.35;;;24.10;81.50;;;;;;5093698;28;20024;-80
2022/08/24 11:41:43;;;;;;;3.38;2.40;;;24.10;81.50;;;;;;5093529;28;20437;-80
2022/08/24 11:44:40;;;;;;;2.78;2.13;;;24.10;81.50;;;;;;5095214;28;20505;-80
2022/08/24 11:47:38;;;;;;;3.20;2.40;;;24.10;81.40;;;;;;5093703;28;20162;-81
2022/08/24 11:50:37;;;;;;;3.30;2.40;;;24.20;81.30;;;;;;5093656;28;20039;-82
2022/08/24 11:53:26;;;;;;;3.30;2.42;;;24.30;81.20;;;;;;5094732;28;20395;-80
2022/08/24 11:56:17;;;;;;;3.47;2.30;;;24.30;81.10;;;;;;5093449;28;20024;-80
2022/08/24 11:59:08;;;;;;;3.45;2.50;;;24.30;81.00;;;;;;5093369;28;20032;-80
2022/08/24 12:01:50;;;;;;;2.83;2.20;;;24.30;81.10;;;;;;5093223;28;20082;-81
2022/08/24 12:04:51;;;;;;;3.05;2.20;;;24.20;81.00;;;;;;5093227;28;20028;-79
2022/08/24 12:07:38;;;;;;;3.80;2.53;;;24.20;81.30;;;;;;5093349;28;20020;-82
2022/08/24 12:10:24;;;;;;;2.75;2.13;;;24.20;81.30;;;;;;5093323;28;20111;-80
2022/08/24 12:13:23;;;;;;;2.67;2.17;;;24.10;81.40;;;;;;5091176;28;20024;-82
2022/08/24 12:15:58;;;;;;;3.55;2.45;;;24.10;81.50;;;;;;5092896;28;20024;-82
2022/08/24 12:18:32;;;;;;;3.20;2.30;;;24.10;81.60;;;;;;5073501;28;20036;-82
2022/08/24 12:20:57;;;;;;;3.40;2.53;;;24.10;81.60;;;;;;5072656;28;20025;-81
2022/08/24 12:23:32;;;;;;;2.60;2.13;;;24.10;81.70;;;;;;5072501;28;20097;-83
2022/08/24 12:26:10;;;;;;;2.80;2.30;;;24.10;81.60;;;;;;5072107;28;20502;-82
2022/08/24 12:28:42;;;;;;;4.18;2.47;;;24.10;81.60;;;;;;5071116;28;20031;-81
2022/08/24 12:31:20;;;;;;;3.53;2.25;;;24.10;82.10;;;;;;5079660;28;20016;-80
2022/08/24 12:33:54;;;;;;;2.88;2.17;;;24.10;81.40;;;;;;5086556;28;20107;-81
2022/08/24 12:36:29;;;;;;;2.70;2.10;;;24.20;81.40;;;;;;5092437;28;20020;-80
2022/08/24 12:39:06;;;;;;;4.55;2.53;;;24.20;81.30;;;;;;5092145;28;20119;-81
2022/08/24 12:41:54;;;;;;;3.58;2.38;;;24.20;81.30;;;;;;5091805;28;20043;-82
2022/08/24 12:44:24;;;;;;;3.38;2.50;;;24.10;81.30;;;;;;5091624;28;20030;-80
2022/08/24 12:46:53;;;;;;;3.58;2.50;;;24.10;81.50;;;;;;5093824;28;20019;-83
2022/08/24 12:49:31;;;;;;;3.90;2.30;;;24.10;81.60;;;;;;5093703;28;20025;-82
2022/08/24 12:52:30;;;;;;;3.22;2.47;;;24.00;81.70;;;;;;5092342;28;20020;-80
2022/08/24 12:55:15;;;;;;;4.30;2.50;;;24.00;81.80;;;;;;5092284;28;20024;-81
2022/08/24 12:58:05;;;;;;;3.47;2.40;;;24.00;81.90;;;;;;5092270;28;20043;-82
2022/08/24 13:00:44;;;;;;;3.47;2.40;;;24.00;82.00;;;;;;5092345;28;20024;-80
2022/08/24 13:03:29;;;;;;;3.50;2.50;;;24.00;82.00;;;;;;5093348;28;20028;-80
2022/08/24 13:05:59;;;;;;;4.32;2.38;;;24.00;82.10;;;;;;5093243;28;20028;-81
2022/08/24 13:08:41;;;;;;;4.15;2.00;;;24.00;82.10;;;;;;5093245;28;20027;-82
2022/08/24 13:11:13;;;;;;;3.40;2.30;;;24.00;82.20;;;;;;5093178;28;20035;-81
2022/08/24 13:13:43;;;;;;;3.30;2.30;;;24.00;82.10;;;;;;5092061;28;20113;-80
2022/08/24 13:16:09;;;;;;;3.65;2.50;;;24.00;82.00;;;;;;5093099;28;20028;-80
2022/08/24 13:18:50;;;;;;;3.28;2.42;;;24.00;82.00;;;;;;5082646;28;20024;-81
2022/08/24 13:21:35;;;;;;;3.63;2.38;;;24.00;81.90;;;;;;5092059;28;20031;-81
2022/08/24 13:24:29;;;;;;;3.00;2.20;;;24.00;81.80;;;;;;5087588;28;20441;-80
2022/08/24 13:27:14;;;;;;;3.03;2.33;;;24.10;81.90;;;;;;5087791;28;20028;-80
2022/08/24 13:30:03;;;;;;;2.83;2.05;;;24.00;82.00;;;;;;5077283;28;20562;-82
2022/08/24 13:32:43;;;;;;;3.53;2.37;;;24.00;82.10;;;;;;5085176;28;20028;-80
2022/08/24 13:35:52;;;;;;;3.13;2.42;;;24.00;82.20;;;;;;5093321;28;20432;-80
2022/08/24 13:38:43;;;;;;;4.95;2.55;;;23.90;82.30;;;;;;5089514;28;20024;-79
2022/08/24 13:41:38;;;;;;;2.78;2.25;;;23.90;82.50;;;;;;5069505;28;20487;-80
2022/08/24 13:44:20;;;;;;;3.53;2.28;;;23.80;82.50;;;;;;5083329;28;20098;-81
2022/08/24 13:47:08;;;;;;;4.32;2.35;;;23.80;82.60;;;;;;5094674;28;20418;-80
2022/08/24 13:50:00;;;;;;;3.08;2.30;;;23.80;82.70;;;;;;5068842;28;20056;-79
2022/08/24 13:52:44;;;;;;;3.20;2.40;;;23.80;82.70;;;;;;5068134;28;20534;-79
2022/08/24 13:55:31;;;;;;;3.45;2.30;;;23.80;82.80;;;;;;5091225;28;20032;-80
2022/08/24 13:58:18;;;;;;;3.10;2.10;;;23.80;82.70;;;;;;5086661;28;20036;-79
2022/08/24 14:00:49;;;;;;;3.10;2.30;;;23.80;82.60;;;;;;5088215;28;20028;-80
2022/08/24 14:03:18;;;;;;;3.17;2.33;;;23.90;82.60;;;;;;5092838;28;21421;-82
2022/08/24 14:05:49;;;;;;;3.30;2.30;;;23.90;82.60;;;;;;5076299;28;20040;-80
2022/08/24 14:08:37;;;;;;;4.03;2.60;;;23.90;82.50;;;;;;5087207;28;20076;-79
2022/08/24 14:11:35;;;;;;;2.72;2.22;;;23.80;82.60;;;;;;5098397;28;20315;-78
2022/08/24 14:14:21;;;;;;;2.97;2.10;;;23.80;82.70;;;;;;5077086;28;20402;-78
2022/08/24 14:20:16;;;;;;;3.50;2.35;;;23.80;83.00;;;;;;5107770;28;20076;-78
2022/08/24 14:23:11;;;;;;;3.03;2.20;;;23.80;83.00;;;;;;5105632;28;20830;-78
2022/08/24 14:25:37;;;;;;;3.53;2.40;;;23.80;83.10;;;;;;5107397;28;20024;-80
2022/08/24 14:28:33;;;;;;;3.50;2.50;;;23.70;83.10;;;;;;5106089;28;20026;-78
2022/08/24 14:31:19;;;;;;;2.75;2.17;;;23.70;83.30;;;;;;5106492;28;20081;-78
2022/08/24 14:34:22;;;;;;;3.72;2.38;;;23.70;83.30;;;;;;5097248;28;20579;-78
2022/08/24 14:37:03;;;;;;;3.10;2.30;;;23.70;83.30;;;;;;5070707;28;20028;-78
2022/08/24 14:39:38;;;;;;;4.15;2.60;;;23.70;83.30;;;;;;5087098;28;20024;-79
2022/08/24 14:42:09;;;;;;;3.30;2.25;;;23.70;83.60;;;;;;5085226;28;20575;-78
2022/08/24 14:44:58;;;;;;;3.15;2.40;;;23.70;83.60;;;;;;5085855;28;20074;-83
2022/08/24 14:47:48;;;;;;;4.60;2.45;;;23.80;83.00;;;;;;5091371;28;20073;-82
2022/08/24 14:50:21;;;;;;;2.97;2.30;;;23.80;82.90;;;;;;5087156;28;20097;-82
2022/08/24 14:53:27;;;;;;;2.92;2.30;;;23.80;82.90;;;;;;5089987;28;20364;-78
2022/08/24 14:56:20;;;;;;;3.72;2.25;;;23.70;83.00;;;;;;5089962;28;20107;-82
2022/08/24 14:59:10;;;;;;;3.40;2.17;;;23.70;83.00;;;;;;5089914;28;20493;-80
2022/08/24 15:01:44;;;;;;;3.28;2.50;;;23.70;83.20;;;;;;5090501;28;20046;-80
2022/08/24 15:04:38;;;;;;;3.22;2.30;;;23.70;83.30;;;;;;5089664;28;20052;-80
2022/08/24 15:07:28;;;;;;;2.85;2.20;;;23.70;83.30;;;;;;5089772;28;20085;-80
2022/08/24 15:09:55;;;;;;;3.05;2.30;;;23.70;83.50;;;;;;5090940;28;20028;-81
2022/08/24 15:12:26;;;;;;;3.40;2.40;;;23.60;83.40;;;;;;5088609;28;20114;-81
2022/08/24 15:15:00;;;;;;;2.33;1.95;;;23.60;83.50;;;;;;5090689;28;20122;-81
2022/08/24 15:17:43;;;;;;;2.90;2.25;;;23.60;83.60;;;;;;5089144;28;20028;-80